Time;durP1;ratioP1;P1;durP2;ratioP2;P2;SDS_P1;SDS_P2;PMS_P1;PMS_P2;Temp;Humidity;BMP_temperature;BMP_pressure;BME280_temperature;BME280_humidity;BME280_pressure;Samples;Min_cycle;Max_cycle;Signal;HPM_P1;HPM_P2
2021/12/18 00:00:33;;;;;;;0.40;0.40;;;6.30;99.90;;;;;;4416937;32;20162;-69
2021/12/18 00:02:58;;;;;;;0.70;0.70;;;6.30;99.90;;;;;;4420728;32;20074;-68
2021/12/18 00:05:24;;;;;;;0.32;0.32;;;6.30;99.90;;;;;;4419630;32;20325;-68
2021/12/18 00:07:49;;;;;;;0.40;0.40;;;6.30;99.90;;;;;;4416019;32;20076;-70
2021/12/18 00:10:19;;;;;;;0.50;0.50;;;6.30;99.90;;;;;;4416419;32;20521;-69
2021/12/18 00:12:49;;;;;;;0.40;0.40;;;6.30;99.90;;;;;;4415537;32;20066;-69
2021/12/18 00:15:17;;;;;;;0.30;0.30;;;6.30;99.90;;;;;;4419179;32;20069;-69
2021/12/18 00:17:42;;;;;;;0.28;0.28;;;6.30;99.90;;;;;;4431935;32;20494;-69
2021/12/18 00:20:09;;;;;;;0.85;0.70;;;6.30;99.90;;;;;;4420394;32;20078;-68
2021/12/18 00:22:35;;;;;;;1.05;0.98;;;6.30;99.90;;;;;;4419980;32;20120;-68
2021/12/18 00:25:00;;;;;;;1.55;0.90;;;6.30;99.90;;;;;;4427274;32;20181;-67
2021/12/18 00:27:26;;;;;;;0.30;0.30;;;6.30;99.90;;;;;;4423832;32;20062;-67
2021/12/18 00:29:51;;;;;;;0.30;0.30;;;6.30;99.90;;;;;;4421646;32;20514;-68
2021/12/18 00:32:17;;;;;;;0.50;0.50;;;6.10;99.90;;;;;;4424170;32;20414;-67
2021/12/18 00:34:42;;;;;;;1.10;0.98;;;6.20;99.90;;;;;;4415777;32;20487;-68
2021/12/18 00:37:08;;;;;;;0.62;0.62;;;6.30;99.90;;;;;;4417759;32;20116;-69
2021/12/18 00:39:36;;;;;;;0.30;0.30;;;6.30;99.90;;;;;;4424128;32;20062;-67
2021/12/18 00:43:20;;;;;;;0.37;0.37;;;6.20;99.90;;;;;;4424319;32;20474;-68
2021/12/18 00:44:47;;;;;;;0.32;0.32;;;6.20;99.90;;;;;;4406852;32;20078;-68
2021/12/18 00:47:13;;;;;;;0.37;0.37;;;6.20;99.90;;;;;;4430223;32;20061;-68
2021/12/18 00:49:39;;;;;;;0.30;0.30;;;6.20;99.90;;;;;;4426740;32;20065;-69
2021/12/18 00:52:04;;;;;;;0.90;0.80;;;6.20;99.90;;;;;;4417371;32;20132;-68
2021/12/18 00:54:31;;;;;;;0.40;0.40;;;6.10;99.90;;;;;;4423038;32;20101;-68
2021/12/18 00:56:58;;;;;;;0.37;0.37;;;6.10;99.90;;;;;;4419691;32;20069;-69
2021/12/18 00:59:23;;;;;;;0.37;0.37;;;6.10;99.90;;;;;;4424636;32;20082;-68
2021/12/18 01:01:49;;;;;;;1.10;0.93;;;6.20;99.90;;;;;;4420530;32;20509;-68
2021/12/18 01:04:15;;;;;;;0.37;0.37;;;6.20;99.90;;;;;;4419893;32;20069;-69
2021/12/18 01:06:41;;;;;;;0.30;0.30;;;6.10;99.90;;;;;;4414705;32;20124;-69
2021/12/18 01:09:06;;;;;;;0.40;0.40;;;6.10;99.90;;;;;;4428887;32;20124;-68
2021/12/18 01:11:35;;;;;;;0.20;0.20;;;6.20;99.90;;;;;;4427852;32;20089;-69
2021/12/18 01:14:22;;;;;;;0.30;0.30;;;6.20;99.90;;;;;;4425566;32;20510;-69
2021/12/18 01:24:32;;;;;;;0.30;0.30;;;6.30;99.90;;;;;;4420586;32;20513;-68
2021/12/18 01:26:57;;;;;;;0.40;0.40;;;6.40;99.90;;;;;;4423132;32;20094;-69
2021/12/18 01:29:23;;;;;;;0.50;0.45;;;6.30;99.90;;;;;;4419040;32;20082;-68
2021/12/18 01:31:48;;;;;;;0.30;0.30;;;6.20;99.90;;;;;;4414690;32;20213;-66
2021/12/18 01:34:14;;;;;;;0.40;0.40;;;6.30;99.90;;;;;;4427629;32;20548;-69
2021/12/18 01:36:39;;;;;;;0.30;0.30;;;6.40;99.90;;;;;;4413840;32;20065;-68
2021/12/18 01:39:05;;;;;;;0.70;0.70;;;6.30;99.90;;;;;;4422229;32;20133;-68
2021/12/18 01:41:40;;;;;;;0.40;0.40;;;6.20;99.90;;;;;;4421059;32;20069;-68
2021/12/18 01:44:48;;;;;;;3.40;1.65;;;6.20;99.90;;;;;;4425184;32;20126;-68
2021/12/18 01:51:15;;;;;;;0.37;0.37;;;6.20;99.90;;;;;;4401886;32;20083;-67
2021/12/18 01:52:32;;;;;;;0.98;0.93;;;6.20;99.90;;;;;;4402391;32;20138;-69
2021/12/18 01:54:58;;;;;;;0.25;0.25;;;6.20;99.90;;;;;;4422349;32;20097;-69
2021/12/18 01:57:23;;;;;;;0.40;0.40;;;6.10;99.90;;;;;;4429110;32;20077;-69
2021/12/18 01:59:49;;;;;;;0.37;0.37;;;6.20;99.90;;;;;;4424106;32;20066;-68
2021/12/18 02:02:16;;;;;;;1.20;0.50;;;6.20;99.90;;;;;;4424688;32;20127;-69
2021/12/18 02:04:41;;;;;;;0.30;0.30;;;6.20;99.90;;;;;;4425392;32;20092;-69
2021/12/18 02:07:07;;;;;;;0.30;0.30;;;6.20;99.90;;;;;;4430687;32;20086;-68
2021/12/18 02:09:54;;;;;;;0.32;0.32;;;6.10;99.90;;;;;;4421884;32;20077;-68
2021/12/18 02:12:23;;;;;;;0.30;0.30;;;6.10;99.90;;;;;;4418525;32;20535;-68
2021/12/18 02:19:51;;;;;;;9.45;0.73;;;6.00;99.90;;;;;;4404258;32;20077;-69
2021/12/18 02:20:35;;;;;;;0.30;0.30;;;6.00;99.90;;;;;;4404949;32;20192;-70
2021/12/18 02:23:01;;;;;;;0.40;0.40;;;6.00;99.90;;;;;;4426400;32;20097;-70
2021/12/18 02:25:30;;;;;;;0.32;0.32;;;6.10;99.90;;;;;;4422767;32;20108;-69
2021/12/18 02:27:56;;;;;;;0.30;0.30;;;6.10;99.90;;;;;;4416993;32;20062;-69
2021/12/18 02:30:22;;;;;;;0.47;0.47;;;6.10;99.90;;;;;;4424786;32;20568;-71
2021/12/18 02:32:49;;;;;;;0.30;0.30;;;6.10;99.90;;;;;;4415361;32;20082;-68
2021/12/18 02:35:35;;;;;;;0.43;0.43;;;6.20;99.90;;;;;;4420264;32;20128;-68
2021/12/18 02:38:09;;;;;;;0.30;0.30;;;6.20;99.90;;;;;;4428042;32;20196;-69
2021/12/18 02:41:14;;;;;;;2.83;0.85;;;6.20;99.90;;;;;;4425380;32;20076;-68
2021/12/18 02:43:24;;;;;;;0.30;0.30;;;6.20;99.90;;;;;;4413455;32;20180;-68
2021/12/18 02:45:53;;;;;;;0.30;0.30;;;6.20;99.90;;;;;;4416870;32;20107;-68
2021/12/18 02:48:19;;;;;;;0.50;0.50;;;6.10;99.90;;;;;;4415636;32;20058;-68
2021/12/18 02:50:44;;;;;;;0.40;0.40;;;6.10;99.90;;;;;;4415973;32;20137;-69
2021/12/18 02:53:10;;;;;;;0.30;0.30;;;6.10;99.90;;;;;;4415151;32;20128;-67
2021/12/18 02:55:35;;;;;;;0.30;0.30;;;6.10;99.90;;;;;;4421638;32;20116;-69
2021/12/18 02:58:01;;;;;;;0.30;0.30;;;6.10;99.90;;;;;;4420702;32;20061;-68
2021/12/18 03:00:28;;;;;;;1.40;0.40;;;6.10;99.90;;;;;;4429535;32;20089;-68
2021/12/18 03:02:54;;;;;;;0.20;0.20;;;6.20;99.90;;;;;;4427693;32;20588;-66
2021/12/18 03:05:28;;;;;;;0.30;0.30;;;6.20;99.90;;;;;;4421296;32;20606;-68
2021/12/18 03:08:00;;;;;;;0.30;0.30;;;6.20;99.90;;;;;;4414990;32;20086;-69
2021/12/18 03:20:49;;;;;;;0.30;0.30;;;6.20;99.90;;;;;;4403234;32;20090;-69
2021/12/18 03:22:32;;;;;;;0.32;0.32;;;6.20;99.90;;;;;;4408282;32;20081;-68
2021/12/18 03:24:24;;;;;;;0.40;0.40;;;6.30;99.90;;;;;;4407380;32;20607;-68
2021/12/18 03:26:49;;;;;;;0.30;0.30;;;6.30;99.90;;;;;;4430930;32;20116;-69
2021/12/18 03:29:15;;;;;;;0.37;0.37;;;6.30;99.90;;;;;;4418437;32;20229;-68
2021/12/18 03:31:40;;;;;;;0.40;0.40;;;6.30;99.90;;;;;;4415842;32;20151;-69
2021/12/18 03:34:06;;;;;;;0.45;0.45;;;6.30;99.90;;;;;;4418955;32;20161;-68
2021/12/18 03:36:31;;;;;;;0.30;0.30;;;6.30;99.90;;;;;;4418605;32;20077;-68
2021/12/18 03:38:57;;;;;;;0.50;0.50;;;6.30;99.90;;;;;;4421930;32;20086;-69
2021/12/18 03:41:22;;;;;;;1.25;0.52;;;6.30;99.90;;;;;;4426708;32;20151;-69
2021/12/18 03:43:48;;;;;;;0.50;0.50;;;6.30;99.90;;;;;;4425877;32;20065;-69
2021/12/18 03:46:14;;;;;;;0.37;0.37;;;6.30;99.90;;;;;;4427449;32;20136;-67
2021/12/18 03:48:39;;;;;;;0.57;0.50;;;6.30;99.90;;;;;;4420680;32;20527;-69
2021/12/18 03:51:05;;;;;;;0.50;0.50;;;6.30;99.90;;;;;;4418582;32;20093;-66
2021/12/18 03:53:30;;;;;;;0.30;0.30;;;6.30;99.90;;;;;;4425155;32;20074;-67
2021/12/18 03:55:56;;;;;;;0.37;0.37;;;6.30;99.90;;;;;;4426786;32;20124;-68
2021/12/18 03:58:21;;;;;;;0.20;0.20;;;6.30;99.90;;;;;;4425704;32;20087;-68
2021/12/18 04:00:47;;;;;;;0.30;0.30;;;6.30;99.90;;;;;;4415216;32;20093;-68
2021/12/18 04:03:12;;;;;;;7.78;0.57;;;6.30;99.90;;;;;;4427639;32;20577;-69
2021/12/18 04:05:38;;;;;;;0.40;0.40;;;6.30;99.90;;;;;;4423743;32;20090;-68
2021/12/18 04:08:11;;;;;;;0.45;0.45;;;6.30;99.90;;;;;;4429508;32;20081;-69
2021/12/18 04:10:39;;;;;;;0.50;0.50;;;6.30;99.90;;;;;;4421528;32;20073;-68
2021/12/18 04:13:07;;;;;;;0.30;0.30;;;6.30;99.90;;;;;;4416304;32;20432;-69
2021/12/18 04:15:32;;;;;;;0.30;0.30;;;6.20;99.90;;;;;;4424351;32;20069;-68
2021/12/18 04:17:58;;;;;;;0.30;0.30;;;6.30;99.90;;;;;;4418681;32;20069;-68
2021/12/18 04:20:24;;;;;;;0.40;0.40;;;6.30;99.90;;;;;;4414833;32;20494;-68
2021/12/18 04:22:50;;;;;;;0.43;0.43;;;6.30;99.90;;;;;;4420673;32;20077;-70
2021/12/18 04:25:15;;;;;;;0.30;0.30;;;6.30;99.90;;;;;;4418925;32;20065;-68
2021/12/18 04:27:42;;;;;;;0.50;0.50;;;6.20;99.90;;;;;;4413851;32;20412;-68
2021/12/18 04:30:08;;;;;;;0.30;0.30;;;6.20;99.90;;;;;;4425557;32;20541;-69
2021/12/18 04:32:33;;;;;;;0.40;0.40;;;6.20;99.90;;;;;;4423103;32;106044;-68
2021/12/18 04:34:59;;;;;;;0.30;0.30;;;6.20;99.90;;;;;;4418664;32;20090;-68
2021/12/18 04:37:24;;;;;;;0.75;0.60;;;6.20;99.90;;;;;;4415966;32;20065;-67
2021/12/18 04:39:51;;;;;;;0.80;0.45;;;6.30;99.90;;;;;;4418478;32;20109;-68
2021/12/18 04:42:16;;;;;;;0.30;0.30;;;6.30;99.90;;;;;;4423858;32;20073;-68
2021/12/18 04:44:42;;;;;;;0.40;0.40;;;6.30;99.90;;;;;;4425943;32;20081;-68
2021/12/18 04:47:07;;;;;;;0.40;0.40;;;6.30;99.90;;;;;;4420571;32;20069;-68
2021/12/18 04:49:33;;;;;;;0.50;0.50;;;6.20;99.90;;;;;;4415372;32;20877;-68
2021/12/18 04:51:58;;;;;;;0.30;0.30;;;6.20;99.90;;;;;;4418318;32;20098;-69
2021/12/18 04:54:24;;;;;;;0.40;0.40;;;6.30;99.90;;;;;;4423769;32;20073;-68
2021/12/18 04:56:50;;;;;;;0.30;0.30;;;6.30;99.90;;;;;;4415010;32;20521;-69
2021/12/18 04:59:15;;;;;;;0.30;0.30;;;6.30;99.90;;;;;;4429353;32;20115;-68
2021/12/18 05:01:41;;;;;;;0.40;0.40;;;6.40;99.90;;;;;;4412992;32;20419;-69
2021/12/18 05:04:10;;;;;;;0.88;0.70;;;6.40;99.90;;;;;;4422265;32;20120;-68
2021/12/18 05:06:40;;;;;;;0.88;0.52;;;6.40;99.90;;;;;;4416523;32;20057;-68
2021/12/18 05:09:06;;;;;;;0.40;0.40;;;6.40;99.90;;;;;;4418991;32;20085;-68
2021/12/18 05:11:32;;;;;;;0.80;0.40;;;6.40;99.90;;;;;;4419783;32;20170;-68
2021/12/18 05:13:57;;;;;;;0.30;0.30;;;6.30;99.90;;;;;;4421642;32;20450;-68
2021/12/18 05:16:23;;;;;;;0.30;0.30;;;6.40;99.90;;;;;;4418146;32;20163;-69
2021/12/18 05:18:48;;;;;;;0.30;0.30;;;6.40;99.90;;;;;;4426036;32;20061;-67
2021/12/18 05:21:14;;;;;;;0.30;0.30;;;6.30;99.90;;;;;;4421396;32;20062;-68
2021/12/18 05:23:39;;;;;;;0.40;0.40;;;6.30;99.90;;;;;;4428393;32;20061;-67
2021/12/18 05:26:04;;;;;;;0.40;0.40;;;6.30;99.90;;;;;;4428534;32;20410;-67
2021/12/18 05:28:30;;;;;;;0.30;0.30;;;6.20;99.90;;;;;;4418725;32;20066;-68
2021/12/18 05:30:55;;;;;;;0.40;0.40;;;6.30;99.90;;;;;;4416979;32;20588;-68
2021/12/18 05:33:21;;;;;;;0.30;0.30;;;6.30;99.90;;;;;;4418496;32;20061;-67
2021/12/18 05:35:46;;;;;;;1.75;0.77;;;6.30;99.90;;;;;;4423726;32;20139;-69
2021/12/18 05:38:12;;;;;;;0.40;0.40;;;6.30;99.90;;;;;;4427116;32;20073;-69
2021/12/18 05:40:38;;;;;;;0.40;0.40;;;6.30;99.90;;;;;;4418078;32;20069;-68
2021/12/18 05:43:05;;;;;;;0.30;0.30;;;6.40;99.90;;;;;;4429816;32;20069;-68
2021/12/18 05:45:31;;;;;;;0.30;0.30;;;6.40;99.90;;;;;;4421742;32;20081;-68
2021/12/18 05:47:56;;;;;;;0.50;0.50;;;6.50;99.90;;;;;;4417857;32;20053;-68
2021/12/18 05:50:24;;;;;;;0.40;0.40;;;6.40;99.90;;;;;;4417552;32;20106;-68
2021/12/18 05:52:50;;;;;;;0.30;0.30;;;6.40;99.90;;;;;;4420341;32;20074;-68
2021/12/18 05:55:18;;;;;;;0.20;0.20;;;6.40;99.90;;;;;;4427963;32;20069;-68
2021/12/18 05:57:43;;;;;;;0.47;0.47;;;6.40;99.90;;;;;;4431417;32;20120;-68
2021/12/18 06:00:10;;;;;;;3.00;1.20;;;6.30;99.90;;;;;;4420644;32;20124;-69
2021/12/18 06:02:36;;;;;;;20.58;0.95;;;6.30;99.90;;;;;;4429382;32;20327;-68
2021/12/18 06:05:04;;;;;;;0.37;0.37;;;6.40;99.90;;;;;;4422879;32;20407;-68
2021/12/18 06:07:33;;;;;;;0.40;0.40;;;6.40;99.90;;;;;;4415698;32;20070;-69
2021/12/18 06:09:59;;;;;;;0.37;0.37;;;6.30;99.90;;;;;;4421319;32;20109;-70
2021/12/18 06:12:25;;;;;;;0.30;0.30;;;6.40;99.90;;;;;;4430104;32;20117;-68
2021/12/18 06:14:51;;;;;;;0.30;0.30;;;6.40;99.90;;;;;;4418848;32;20065;-68
2021/12/18 06:17:17;;;;;;;0.30;0.30;;;6.30;99.90;;;;;;4420651;32;20142;-69
2021/12/18 06:19:42;;;;;;;0.30;0.30;;;6.30;99.90;;;;;;4425267;32;20078;-69
2021/12/18 06:22:08;;;;;;;0.25;0.25;;;6.30;99.90;;;;;;4430813;32;20487;-69
2021/12/18 06:24:33;;;;;;;0.40;0.40;;;6.40;99.90;;;;;;4422936;32;20061;-69
2021/12/18 06:26:59;;;;;;;0.30;0.30;;;6.40;99.90;;;;;;4416541;32;20074;-69
2021/12/18 06:29:24;;;;;;;0.25;0.25;;;6.30;99.90;;;;;;4417255;32;20066;-69
2021/12/18 06:31:50;;;;;;;0.50;0.50;;;6.40;99.90;;;;;;4426942;32;20124;-68
2021/12/18 06:34:16;;;;;;;0.75;0.40;;;6.40;99.90;;;;;;4420278;32;20061;-68
2021/12/18 06:36:42;;;;;;;0.47;0.47;;;6.30;99.90;;;;;;4423944;32;20537;-67
2021/12/18 06:39:08;;;;;;;0.90;0.40;;;6.40;99.90;;;;;;4430353;32;20128;-68
2021/12/18 06:41:34;;;;;;;0.30;0.30;;;6.40;99.90;;;;;;4430718;32;20427;-68
2021/12/18 06:43:59;;;;;;;0.30;0.30;;;6.30;99.90;;;;;;4432053;32;20068;-68
2021/12/18 06:46:25;;;;;;;0.30;0.30;;;6.30;99.90;;;;;;4426207;32;20086;-68
2021/12/18 06:48:50;;;;;;;0.32;0.32;;;6.30;99.90;;;;;;4417904;32;20083;-70
2021/12/18 06:51:18;;;;;;;0.30;0.30;;;6.30;99.90;;;;;;4425796;32;20097;-67
2021/12/18 06:53:43;;;;;;;0.30;0.30;;;6.30;99.90;;;;;;4419424;32;20058;-68
2021/12/18 06:56:09;;;;;;;0.30;0.30;;;6.30;99.90;;;;;;4415684;32;20065;-69
2021/12/18 06:58:35;;;;;;;0.32;0.32;;;6.40;99.90;;;;;;4423144;32;20290;-69
2021/12/18 07:01:00;;;;;;;1.48;0.40;;;6.40;99.90;;;;;;4425731;32;20665;-73
2021/12/18 07:03:26;;;;;;;0.40;0.40;;;6.40;99.90;;;;;;4420631;32;20065;-68
2021/12/18 07:05:51;;;;;;;0.28;0.28;;;6.40;99.90;;;;;;4417866;32;20134;-68
2021/12/18 07:08:17;;;;;;;0.30;0.30;;;6.40;99.90;;;;;;4415261;32;20066;-68
2021/12/18 07:10:43;;;;;;;0.37;0.37;;;6.30;99.90;;;;;;4416492;32;20094;-69
2021/12/18 07:13:09;;;;;;;0.30;0.30;;;6.30;99.90;;;;;;4414973;32;20116;-67
2021/12/18 07:15:34;;;;;;;0.30;0.30;;;6.30;99.90;;;;;;4422786;32;20529;-68
2021/12/18 07:18:00;;;;;;;1.08;0.62;;;6.30;99.90;;;;;;4427890;32;20372;-69
2021/12/18 07:20:27;;;;;;;0.50;0.50;;;6.30;99.90;;;;;;4420928;32;20097;-68
2021/12/18 07:22:53;;;;;;;0.95;0.60;;;6.30;99.90;;;;;;4415086;32;20481;-68
2021/12/18 07:25:19;;;;;;;0.52;0.30;;;6.30;99.90;;;;;;4415132;32;20086;-68
2021/12/18 07:27:44;;;;;;;0.28;0.28;;;6.40;99.90;;;;;;4421960;32;20403;-68
2021/12/18 07:30:11;;;;;;;0.40;0.40;;;6.40;99.90;;;;;;4415810;32;20077;-69
2021/12/18 07:32:37;;;;;;;0.30;0.30;;;6.50;99.90;;;;;;4426324;32;20173;-68
2021/12/18 07:35:04;;;;;;;0.50;0.50;;;6.40;99.90;;;;;;4415168;32;20082;-68
2021/12/18 07:37:29;;;;;;;0.40;0.40;;;6.30;99.90;;;;;;4429123;32;20077;-68
2021/12/18 07:39:55;;;;;;;0.40;0.40;;;6.40;99.90;;;;;;4420531;32;20083;-68
2021/12/18 07:42:21;;;;;;;0.30;0.30;;;6.30;99.90;;;;;;4428917;32;20361;-67
2021/12/18 07:44:47;;;;;;;0.30;0.30;;;6.20;99.90;;;;;;4427014;32;20379;-68
2021/12/18 07:47:12;;;;;;;0.40;0.40;;;6.10;99.90;;;;;;4415894;32;20538;-68
2021/12/18 07:49:39;;;;;;;0.50;0.50;;;6.10;99.90;;;;;;4424306;32;20070;-68
2021/12/18 07:52:04;;;;;;;0.40;0.40;;;6.10;99.90;;;;;;4413477;32;20069;-68
2021/12/18 07:54:31;;;;;;;0.35;0.35;;;6.20;99.90;;;;;;4422270;32;20105;-68
2021/12/18 07:56:57;;;;;;;0.30;0.30;;;6.20;99.90;;;;;;4419183;32;20395;-68
2021/12/18 07:59:22;;;;;;;0.40;0.40;;;6.20;99.90;;;;;;4422487;32;20069;-68
2021/12/18 08:01:48;;;;;;;0.30;0.30;;;6.20;99.90;;;;;;4422928;32;20065;-68
2021/12/18 08:04:13;;;;;;;0.40;0.40;;;6.20;99.90;;;;;;4417111;32;20069;-68
2021/12/18 08:06:39;;;;;;;0.30;0.30;;;6.20;99.90;;;;;;4429446;32;20061;-68
2021/12/18 08:09:05;;;;;;;0.30;0.30;;;6.20;99.90;;;;;;4419438;32;20082;-68
2021/12/18 08:11:30;;;;;;;0.40;0.40;;;6.10;99.90;;;;;;4423472;32;20069;-68
2021/12/18 08:13:56;;;;;;;0.30;0.30;;;6.10;99.90;;;;;;4422971;32;20177;-68
2021/12/18 08:16:21;;;;;;;0.30;0.30;;;6.10;99.90;;;;;;4423903;32;20388;-68
2021/12/18 08:18:47;;;;;;;0.30;0.30;;;6.00;99.90;;;;;;4418229;32;20074;-68
2021/12/18 08:21:13;;;;;;;0.20;0.20;;;6.00;99.90;;;;;;4417422;32;20057;-68
2021/12/18 08:23:39;;;;;;;0.57;0.57;;;6.00;99.90;;;;;;4418801;32;20436;-68
2021/12/18 08:26:05;;;;;;;0.47;0.40;;;6.00;99.90;;;;;;4428570;32;20066;-68
2021/12/18 08:28:30;;;;;;;0.30;0.30;;;6.10;99.90;;;;;;4419450;32;20070;-68
2021/12/18 08:30:56;;;;;;;0.47;0.47;;;6.10;99.90;;;;;;4416354;32;20066;-68
2021/12/18 08:33:21;;;;;;;1.77;1.05;;;6.10;99.90;;;;;;4424388;32;20584;-68
2021/12/18 08:35:47;;;;;;;0.30;0.30;;;6.10;99.90;;;;;;4422483;32;20101;-68
2021/12/18 08:38:12;;;;;;;0.30;0.30;;;6.10;99.90;;;;;;4418590;32;20142;-68
2021/12/18 08:40:38;;;;;;;0.45;0.45;;;6.20;99.90;;;;;;4421527;32;20090;-68
2021/12/18 08:43:04;;;;;;;1.75;0.70;;;6.20;99.90;;;;;;4428414;32;20616;-68
2021/12/18 08:45:30;;;;;;;0.40;0.40;;;6.20;99.90;;;;;;4413907;32;20643;-68
2021/12/18 08:47:56;;;;;;;0.50;0.50;;;6.20;99.90;;;;;;4424789;32;20525;-68
2021/12/18 08:50:22;;;;;;;0.30;0.30;;;6.20;99.90;;;;;;4427432;32;20086;-68
2021/12/18 08:52:49;;;;;;;0.28;0.28;;;6.30;99.90;;;;;;4421035;32;20077;-68
2021/12/18 08:55:17;;;;;;;0.30;0.30;;;6.10;99.90;;;;;;4422494;32;20070;-69
2021/12/18 08:57:43;;;;;;;0.45;0.45;;;6.20;99.90;;;;;;4422027;32;20411;-68
2021/12/18 09:00:12;;;;;;;0.40;0.40;;;6.20;99.90;;;;;;4423289;32;20064;-68
2021/12/18 09:02:40;;;;;;;0.28;0.28;;;6.30;99.90;;;;;;4427166;32;20078;-68
2021/12/18 09:05:08;;;;;;;0.30;0.30;;;6.10;99.90;;;;;;4427686;32;20435;-68
2021/12/18 09:07:34;;;;;;;0.40;0.40;;;6.10;99.90;;;;;;4426915;32;20443;-67
2021/12/18 09:09:59;;;;;;;0.30;0.30;;;6.10;99.90;;;;;;4426344;32;20069;-66
2021/12/18 09:12:25;;;;;;;0.77;0.77;;;6.10;99.90;;;;;;4420696;32;20085;-69
2021/12/18 09:14:51;;;;;;;0.30;0.30;;;6.20;99.90;;;;;;4413356;32;20135;-68
2021/12/18 09:17:17;;;;;;;0.40;0.40;;;6.10;99.90;;;;;;4424191;32;20069;-67
2021/12/18 09:19:42;;;;;;;0.40;0.40;;;6.10;99.90;;;;;;4424038;32;20077;-66
2021/12/18 09:22:09;;;;;;;0.30;0.30;;;6.20;99.90;;;;;;4413228;32;20128;-67
2021/12/18 09:24:35;;;;;;;0.30;0.30;;;6.20;99.90;;;;;;4425402;32;20070;-67
2021/12/18 09:27:01;;;;;;;0.55;0.55;;;6.20;99.90;;;;;;4425810;32;20069;-66
2021/12/18 09:29:26;;;;;;;0.50;0.50;;;6.20;99.90;;;;;;4416619;32;20069;-67
2021/12/18 09:31:52;;;;;;;0.95;0.40;;;6.10;99.90;;;;;;4420768;32;20074;-67
2021/12/18 09:34:17;;;;;;;0.30;0.30;;;6.00;99.90;;;;;;4412800;32;20109;-68
2021/12/18 09:36:43;;;;;;;0.30;0.30;;;6.00;99.90;;;;;;4414371;32;20073;-68
2021/12/18 09:39:09;;;;;;;0.40;0.40;;;6.00;99.90;;;;;;4419636;32;20369;-66
2021/12/18 09:41:35;;;;;;;1.52;0.50;;;6.20;99.90;;;;;;4424453;32;20116;-67
2021/12/18 09:44:01;;;;;;;0.60;0.60;;;6.20;99.90;;;;;;4420005;32;20077;-67
2021/12/18 09:46:31;;;;;;;0.88;0.43;;;6.30;99.90;;;;;;4414824;32;20411;-68
2021/12/18 09:48:57;;;;;;;0.30;0.30;;;6.30;99.90;;;;;;4426053;32;20473;-68
2021/12/18 09:51:27;;;;;;;0.47;0.47;;;6.30;99.90;;;;;;4424485;32;20145;-68
2021/12/18 09:53:54;;;;;;;0.80;0.80;;;6.30;99.90;;;;;;4423849;32;20503;-68
2021/12/18 09:56:20;;;;;;;0.40;0.40;;;6.40;99.90;;;;;;4424130;32;20090;-68
2021/12/18 09:58:46;;;;;;;0.65;0.65;;;6.40;99.90;;;;;;4422075;32;20081;-68
2021/12/18 10:01:12;;;;;;;0.50;0.50;;;6.50;99.90;;;;;;4426816;32;20081;-68
2021/12/18 10:03:43;;;;;;;0.30;0.30;;;6.50;99.90;;;;;;4427157;32;20453;-68
2021/12/18 10:06:39;;;;;;;0.70;0.70;;;6.50;99.90;;;;;;4427478;32;20092;-68
2021/12/18 10:09:09;;;;;;;0.52;0.52;;;6.50;99.90;;;;;;4408597;32;20134;-68
2021/12/18 10:11:47;;;;;;;0.40;0.40;;;6.50;99.90;;;;;;4413021;32;20070;-68
2021/12/18 10:14:14;;;;;;;0.40;0.40;;;6.60;99.90;;;;;;4423477;32;20124;-68
2021/12/18 10:16:45;;;;;;;0.30;0.30;;;6.60;99.90;;;;;;4416294;32;20073;-68
2021/12/18 10:19:28;;;;;;;;;;;6.60;99.90;;;;;;4420999;32;20072;-68
2021/12/18 10:21:57;;;;;;;0.40;0.40;;;6.60;99.90;;;;;;4413519;32;19998;-69
2021/12/18 10:24:23;;;;;;;0.30;0.30;;;6.60;99.90;;;;;;4414397;32;20082;-68
2021/12/18 10:26:49;;;;;;;0.30;0.30;;;6.60;99.90;;;;;;4418869;32;20549;-68
2021/12/18 10:29:27;;;;;;;0.60;0.60;;;6.70;99.90;;;;;;4416715;32;20140;-69
2021/12/18 10:31:53;;;;;;;0.30;0.30;;;6.70;99.90;;;;;;4429103;32;20097;-67
2021/12/18 10:34:23;;;;;;;0.30;0.30;;;6.70;99.90;;;;;;4416565;32;20491;-67
2021/12/18 10:37:11;;;;;;;0.35;0.35;;;6.60;99.90;;;;;;4416696;32;20062;-67
2021/12/18 10:39:44;;;;;;;0.35;0.35;;;6.60;99.90;;;;;;4417875;32;20057;-67
2021/12/18 10:42:22;;;;;;;0.30;0.30;;;6.60;99.90;;;;;;4419183;32;20462;-67
2021/12/18 10:45:09;;;;;;;0.30;0.30;;;6.70;99.90;;;;;;4417559;32;20054;-67
2021/12/18 10:47:56;;;;;;;0.30;0.30;;;6.70;99.90;;;;;;4411250;32;20134;-67
2021/12/18 10:50:33;;;;;;;7.20;0.88;;;6.70;99.90;;;;;;4403497;32;20094;-66
2021/12/18 10:53:21;;;;;;;0.40;0.40;;;6.70;99.90;;;;;;4418703;32;20081;-69
2021/12/18 10:55:51;;;;;;;0.40;0.40;;;6.60;99.90;;;;;;4425417;32;20090;-67
2021/12/18 10:58:19;;;;;;;0.30;0.30;;;6.70;99.90;;;;;;4416937;32;20066;-67
2021/12/18 11:01:09;;;;;;;0.47;0.37;;;6.70;99.90;;;;;;4432141;32;20414;-67
2021/12/18 11:03:43;;;;;;;0.30;0.30;;;6.60;99.90;;;;;;4442698;32;20517;-67
2021/12/18 11:06:31;;;;;;;0.40;0.40;;;6.70;99.90;;;;;;4429895;32;20525;-67
2021/12/18 11:09:11;;;;;;;0.40;0.40;;;6.70;99.90;;;;;;4411671;32;20407;-67
2021/12/18 11:14:22;;;;;;;0.40;0.40;;;6.80;99.90;;;;;;4421077;32;20127;-67
2021/12/18 11:16:52;;;;;;;0.37;0.37;;;6.70;99.90;;;;;;4418400;32;20541;-67
2021/12/18 11:19:21;;;;;;;0.37;0.37;;;6.80;99.90;;;;;;4417371;32;20082;-67
2021/12/18 11:22:07;;;;;;;0.60;0.50;;;6.80;99.90;;;;;;4415058;32;20874;-67
2021/12/18 11:24:37;;;;;;;0.37;0.35;;;6.80;99.90;;;;;;4415418;32;20085;-67
2021/12/18 11:27:07;;;;;;;0.53;0.40;;;6.80;99.90;;;;;;4429370;32;20093;-67
2021/12/18 11:29:44;;;;;;;0.50;0.50;;;6.80;99.90;;;;;;4433908;32;20486;-67
2021/12/18 11:32:13;;;;;;;0.40;0.40;;;6.80;99.90;;;;;;4428483;32;20493;-67
2021/12/18 11:34:39;;;;;;;0.40;0.40;;;6.80;99.90;;;;;;4429077;32;20057;-67
2021/12/18 11:37:09;;;;;;;0.47;0.47;;;6.80;99.90;;;;;;4419472;32;20090;-67
2021/12/18 11:39:36;;;;;;;0.37;0.37;;;6.90;99.90;;;;;;4420893;32;20123;-67
2021/12/18 11:42:03;;;;;;;0.50;0.50;;;6.90;99.90;;;;;;4428441;32;20081;-67
2021/12/18 11:44:33;;;;;;;0.30;0.30;;;6.80;99.90;;;;;;4417899;32;20104;-66
2021/12/18 11:47:35;;;;;;;1.37;0.40;;;6.70;99.90;;;;;;4424180;32;20073;-67
2021/12/18 11:50:20;;;;;;;0.40;0.40;;;6.70;99.90;;;;;;4405150;32;20601;-67
2021/12/18 11:53:05;;;;;;;3.20;0.73;;;6.80;99.90;;;;;;4421118;32;20082;-66
2021/12/18 11:55:53;;;;;;;0.30;0.30;;;6.80;99.90;;;;;;4410720;32;20086;-66
2021/12/18 11:58:43;;;;;;;0.37;0.37;;;6.80;99.90;;;;;;4418536;32;20089;-68
2021/12/18 12:01:19;;;;;;;0.30;0.30;;;6.80;99.90;;;;;;4403246;32;20078;-68
2021/12/18 12:03:56;;;;;;;0.47;0.47;;;6.90;99.90;;;;;;4413225;32;20057;-67
2021/12/18 12:06:33;;;;;;;0.75;0.35;;;6.90;99.90;;;;;;4414443;32;20087;-67
2021/12/18 12:09:34;;;;;;;0.40;0.40;;;7.00;99.90;;;;;;4417175;32;20157;-67
2021/12/18 12:12:04;;;;;;;0.40;0.40;;;7.00;99.90;;;;;;4408762;32;20070;-66
2021/12/18 12:14:31;;;;;;;0.40;0.40;;;6.90;99.90;;;;;;4417725;32;20411;-67
2021/12/18 12:16:59;;;;;;;0.32;0.32;;;6.90;99.90;;;;;;4425523;32;20129;-67
2021/12/18 12:19:39;;;;;;;0.30;0.30;;;6.90;99.90;;;;;;4418935;32;20085;-67
2021/12/18 12:22:09;;;;;;;0.20;0.20;;;6.80;99.90;;;;;;4419143;32;20090;-67
2021/12/18 12:24:54;;;;;;;0.25;0.25;;;6.90;99.90;;;;;;4415092;32;20085;-67
2021/12/18 12:27:41;;;;;;;3.62;1.55;;;6.90;99.90;;;;;;4414271;32;20082;-68
2021/12/18 12:30:11;;;;;;;0.40;0.40;;;7.00;99.90;;;;;;4406166;32;20066;-68
2021/12/18 12:32:37;;;;;;;0.30;0.30;;;7.00;99.90;;;;;;4422469;32;20158;-68
2021/12/18 12:35:07;;;;;;;0.30;0.30;;;7.00;99.90;;;;;;4415515;32;20057;-68
2021/12/18 12:37:38;;;;;;;0.50;0.50;;;7.00;99.90;;;;;;4419840;32;20058;-67
2021/12/18 12:40:15;;;;;;;0.35;0.35;;;7.00;99.90;;;;;;4415368;32;20168;-67
2021/12/18 12:43:20;;;;;;;0.30;0.30;;;7.00;99.90;;;;;;4426016;32;20070;-68
2021/12/18 12:45:49;;;;;;;0.30;0.30;;;7.00;99.90;;;;;;4420168;32;20517;-67
2021/12/18 12:48:16;;;;;;;0.40;0.40;;;7.00;99.90;;;;;;4426288;32;20077;-68
2021/12/18 12:50:42;;;;;;;0.62;0.32;;;6.90;99.90;;;;;;4427985;32;20085;-67
2021/12/18 12:53:09;;;;;;;0.30;0.30;;;7.00;99.90;;;;;;4420856;32;20130;-67
2021/12/18 12:55:43;;;;;;;0.30;0.30;;;7.00;99.90;;;;;;4422339;32;20112;-67
2021/12/18 12:58:25;;;;;;;0.40;0.40;;;7.00;99.90;;;;;;4413566;32;20069;-68
2021/12/18 13:00:53;;;;;;;1.45;1.05;;;7.00;99.90;;;;;;4414081;32;20140;-68
2021/12/18 13:03:23;;;;;;;0.40;0.40;;;7.00;99.90;;;;;;4426345;32;20090;-67
2021/12/18 13:05:52;;;;;;;0.30;0.30;;;7.00;99.90;;;;;;4421661;32;20119;-67
2021/12/18 13:08:19;;;;;;;0.40;0.40;;;6.90;99.90;;;;;;4428097;32;20089;-68
2021/12/18 13:10:47;;;;;;;0.30;0.30;;;6.90;99.90;;;;;;4424692;32;20074;-67
2021/12/18 13:13:17;;;;;;;0.30;0.30;;;6.90;99.90;;;;;;4415105;32;20548;-67
2021/12/18 13:16:06;;;;;;;0.30;0.30;;;6.90;99.90;;;;;;4413231;32;20070;-66
2021/12/18 13:18:39;;;;;;;0.30;0.30;;;7.00;99.90;;;;;;4403665;32;20069;-67
2021/12/18 13:21:09;;;;;;;0.30;0.30;;;7.00;99.90;;;;;;4415112;32;20489;-67
2021/12/18 13:23:38;;;;;;;0.30;0.30;;;7.00;99.90;;;;;;4421659;32;20406;-67
2021/12/18 13:26:07;;;;;;;0.37;0.37;;;7.00;99.90;;;;;;4420126;32;20637;-66
2021/12/18 13:28:32;;;;;;;0.30;0.30;;;7.00;99.90;;;;;;4413971;32;20141;-67
2021/12/18 13:30:58;;;;;;;0.30;0.30;;;7.10;99.90;;;;;;4412420;32;20050;-67